createdAt,value
2019-02-25T00:01:05.026Z,78.31
2019-02-25T00:04:12.950Z,78.23
2019-02-25T00:07:19.545Z,78.09
2019-02-25T00:10:25.881Z,77.96
2019-02-25T00:13:32.272Z,77.98
2019-02-25T00:16:38.598Z,77.71
2019-02-25T00:19:45.039Z,78.02
2019-02-25T00:22:51.592Z,77.78
2019-02-25T00:25:58.039Z,77.74
2019-02-25T00:29:04.380Z,77.00
2019-02-25T00:32:10.826Z,76.80
2019-02-25T00:35:17.063Z,76.67
2019-02-25T00:38:23.982Z,76.50
2019-02-25T00:41:30.427Z,76.29
2019-02-25T00:44:36.803Z,76.06
2019-02-25T00:47:43.174Z,75.91
2019-02-25T00:50:50.669Z,75.75
2019-02-25T00:53:56.980Z,75.50
2019-02-25T00:57:03.380Z,75.19
2019-02-25T01:00:11.893Z,74.38
2019-02-25T01:03:18.473Z,73.91
2019-02-25T01:06:24.812Z,73.45
2019-02-25T01:09:31.385Z,73.11
2019-02-25T01:12:38.183Z,72.78
2019-02-25T01:15:44.636Z,72.62
2019-02-25T01:18:52.391Z,72.28
2019-02-25T01:21:58.945Z,71.41
2019-02-25T01:25:07.581Z,71.08
2019-02-25T01:28:13.998Z,70.86
2019-02-25T01:31:20.336Z,70.63
2019-02-25T01:34:26.690Z,70.44
2019-02-25T01:37:33.127Z,70.55
2019-02-25T01:40:39.777Z,70.65
2019-02-25T01:43:47.296Z,70.71
2019-02-25T01:46:53.755Z,71.26
2019-02-25T01:50:00.288Z,71.52
2019-02-25T01:53:06.731Z,71.17
2019-02-25T01:56:13.069Z,71.18
2019-02-25T01:59:19.654Z,71.38
2019-02-25T02:02:26.053Z,70.97
2019-02-25T02:05:32.461Z,71.47
2019-02-25T02:08:38.699Z,71.40
2019-02-25T02:11:45.203Z,71.02
2019-02-25T02:14:51.553Z,70.72
2019-02-25T02:17:58.100Z,71.31
2019-02-25T02:21:04.555Z,71.03
2019-02-25T02:24:11.057Z,70.82
2019-02-25T02:27:18.419Z,70.39
2019-02-25T02:30:24.897Z,70.24
2019-02-25T02:33:31.192Z,70.45
2019-02-25T02:36:37.537Z,70.66
2019-02-25T02:39:43.787Z,70.91
2019-02-25T02:42:53.047Z,70.76
2019-02-25T02:46:27.861Z,71.10
2019-02-25T02:49:34.350Z,70.97
2019-02-25T02:52:40.855Z,71.01
2019-02-25T02:55:48.529Z,70.77
2019-02-25T02:58:54.926Z,70.81
2019-02-25T03:02:01.405Z,70.76
2019-02-25T03:05:10.801Z,70.71
2019-02-25T03:08:17.233Z,71.24
2019-02-25T03:11:23.640Z,71.25
2019-02-25T03:14:30.218Z,70.71
2019-02-25T03:17:36.529Z,70.71
2019-02-25T03:20:43.048Z,70.79
2019-02-25T03:23:49.320Z,70.94
2019-02-25T03:26:55.708Z,70.82
2019-02-25T03:30:02.058Z,68.67
2019-02-25T03:33:10.072Z,68.43
2019-02-25T03:36:16.403Z,68.77
2019-02-25T03:39:22.641Z,67.15
2019-02-25T03:42:29.176Z,66.23
2019-02-25T03:45:35.745Z,65.81
2019-02-25T03:48:42.319Z,65.32
2019-02-25T03:51:48.656Z,64.86
2019-02-25T03:54:54.985Z,63.21
2019-02-25T03:58:01.392Z,63.54
2019-02-25T04:01:07.727Z,63.52
2019-02-25T04:04:14.110Z,63.25
2019-02-25T04:07:20.461Z,62.54
2019-02-25T04:10:26.969Z,63.61
2019-02-25T04:13:33.321Z,63.43
2019-02-25T04:16:39.996Z,62.17
2019-02-25T04:19:46.472Z,62.42
2019-02-25T04:22:52.833Z,62.41
2019-02-25T04:25:59.131Z,61.28
2019-02-25T04:29:05.764Z,60.44
2019-02-25T04:32:12.166Z,60.92
2019-02-25T04:35:18.685Z,60.31
2019-02-25T04:38:25.023Z,59.36
2019-02-25T04:41:31.365Z,59.79
2019-02-25T04:44:37.696Z,59.52
2019-02-25T04:47:45.086Z,59.45
2019-02-25T04:50:51.566Z,59.19
2019-02-25T04:53:57.979Z,58.94
2019-02-25T04:57:04.351Z,58.44
2019-02-25T05:00:13.200Z,57.97
2019-02-25T05:03:19.440Z,58.19
2019-02-25T05:06:25.878Z,57.93
2019-02-25T05:09:32.217Z,58.03
2019-02-25T05:12:40.290Z,57.02
2019-02-25T05:15:46.683Z,56.28
2019-02-25T05:18:53.051Z,56.09
2019-02-25T05:21:59.638Z,56.89
2019-02-25T05:25:06.341Z,57.02
2019-02-25T05:28:12.618Z,56.10
2019-02-25T05:31:19.093Z,56.61
2019-02-25T05:34:25.464Z,57.35
2019-02-25T05:37:32.024Z,56.63
2019-02-25T05:40:38.648Z,56.33
2019-02-25T05:43:46.038Z,58.34
2019-02-25T05:46:52.359Z,57.98
2019-02-25T05:49:59.293Z,58.00
2019-02-25T05:53:06.827Z,58.59
2019-02-25T05:56:13.293Z,58.34
2019-02-25T05:59:19.539Z,59.42
2019-02-25T06:02:26.286Z,58.84
2019-02-25T06:05:32.617Z,59.86
2019-02-25T06:08:38.998Z,58.48
2019-02-25T06:11:45.399Z,59.02
2019-02-25T06:14:51.936Z,58.58
2019-02-25T06:17:58.192Z,59.33
2019-02-25T06:21:04.586Z,58.79
2019-02-25T06:24:10.871Z,58.72
2019-02-25T06:27:17.295Z,58.34
2019-02-25T06:30:23.725Z,58.15
2019-02-25T06:33:30.136Z,57.93
2019-02-25T06:36:36.388Z,57.97
2019-02-25T06:39:42.954Z,57.03
2019-02-25T06:42:49.274Z,57.78
2019-02-25T06:45:55.664Z,57.84
2019-02-25T06:49:01.995Z,58.07
2019-02-25T06:52:09.754Z,58.13
2019-02-25T06:55:16.329Z,58.50
2019-02-25T06:58:23.172Z,58.23
2019-02-25T07:01:29.572Z,58.51
2019-02-25T07:04:55.997Z,58.38
2019-02-25T07:08:24.366Z,58.25
2019-02-25T07:11:49.678Z,58.92
2019-02-25T07:15:33.487Z,58.31
2019-02-25T07:18:47.266Z,57.98
2019-02-25T07:21:59.257Z,58.03
2019-02-25T07:25:34.527Z,58.87
2019-02-25T07:28:53.989Z,58.28
2019-02-25T07:32:15.687Z,58.05
2019-02-25T07:35:41.538Z,57.36
2019-02-25T07:39:16.329Z,57.78
2019-02-25T07:42:44.558Z,58.39
2019-02-25T07:45:58.300Z,58.26
2019-02-25T07:49:14.505Z,57.54
2019-02-25T07:52:30.647Z,57.65
2019-02-25T07:56:02.396Z,57.78
2019-02-25T07:59:32.664Z,57.44
2019-02-25T08:02:45.105Z,57.51
2019-02-25T08:06:14.273Z,56.73
2019-02-25T08:09:37.263Z,58.01
2019-02-25T08:12:48.613Z,58.12
2019-02-25T08:16:32.018Z,55.95
2019-02-25T08:19:58.354Z,55.42
2019-02-25T08:23:23.629Z,55.84
2019-02-25T08:26:47.776Z,55.31
2019-02-25T08:30:12.202Z,53.60
2019-02-25T08:33:58.779Z,52.78
2019-02-25T08:37:40.642Z,54.24
2019-02-25T08:41:33.294Z,51.51
2019-02-25T08:45:10.987Z,52.24
2019-02-25T08:48:36.459Z,51.48
2019-02-25T08:51:42.846Z,50.41
2019-02-25T08:54:49.568Z,50.10
2019-02-25T08:57:56.180Z,50.10
2019-02-25T09:01:02.542Z,51.11
2019-02-25T09:04:08.906Z,48.77
2019-02-25T09:07:15.507Z,48.64
2019-02-25T09:10:21.822Z,48.18
2019-02-25T09:13:28.259Z,48.74
2019-02-25T09:16:34.720Z,47.56
2019-02-25T09:19:41.078Z,47.50
2019-02-25T09:22:48.476Z,48.20
2019-02-25T09:25:56.525Z,47.17
2019-02-25T09:29:02.907Z,45.99
2019-02-25T09:32:09.470Z,46.58
2019-02-25T09:35:15.782Z,46.58
2019-02-25T09:38:23.647Z,44.18
2019-02-25T09:41:30.401Z,45.69
2019-02-25T09:44:37.966Z,45.80
2019-02-25T09:47:44.417Z,45.43
2019-02-25T09:50:50.697Z,46.27
2019-02-25T09:53:57.121Z,43.46
2019-02-25T09:57:03.959Z,43.97
2019-02-25T10:00:13.745Z,42.87
2019-02-25T10:03:20.375Z,42.71
2019-02-25T10:06:26.788Z,42.01
2019-02-25T10:09:33.230Z,41.03
2019-02-25T10:12:39.586Z,41.95
2019-02-25T10:15:46.045Z,42.69
2019-02-25T10:18:52.423Z,42.31
2019-02-25T10:21:58.777Z,41.00
2019-02-25T10:25:05.263Z,42.32
2019-02-25T10:28:12.437Z,41.67
2019-02-25T10:31:18.822Z,41.97
2019-02-25T10:34:25.160Z,42.60
2019-02-25T10:37:31.429Z,42.50
2019-02-25T10:40:37.821Z,42.47
2019-02-25T10:43:44.305Z,41.88
2019-02-25T10:46:50.697Z,43.46
2019-02-25T10:49:58.560Z,42.80
2019-02-25T10:53:05.275Z,45.00
2019-02-25T10:56:17.357Z,44.65
2019-02-25T10:59:25.444Z,45.24
2019-02-25T11:02:32.026Z,45.11
2019-02-25T11:05:38.657Z,44.14
2019-02-25T11:08:49.491Z,43.50
2019-02-25T11:11:58.007Z,43.42
2019-02-25T11:15:05.290Z,42.29
2019-02-25T11:18:12.269Z,43.02
2019-02-25T11:21:18.639Z,44.81
2019-02-25T11:24:25.408Z,44.23
2019-02-25T11:27:33.199Z,45.74
2019-02-25T11:30:40.000Z,44.93
2019-02-25T11:33:46.456Z,45.46
2019-02-25T11:36:54.930Z,44.76
2019-02-25T11:40:01.955Z,46.03
2019-02-25T11:43:10.679Z,46.14
2019-02-25T11:46:17.346Z,45.70
2019-02-25T11:49:23.697Z,46.43
2019-02-25T11:52:29.966Z,45.83
2019-02-25T11:55:36.315Z,45.74
2019-02-25T11:58:42.804Z,44.82
2019-02-25T12:01:49.384Z,45.00
2019-02-25T12:04:55.943Z,44.68
2019-02-25T12:08:02.343Z,44.68
2019-02-25T12:11:08.806Z,45.03
2019-02-25T12:14:16.365Z,43.76
2019-02-25T12:17:22.693Z,43.64
2019-02-25T12:20:29.066Z,43.64
2019-02-25T12:23:35.520Z,44.39
2019-02-25T12:26:41.836Z,43.47
2019-02-25T12:29:48.247Z,42.11
2019-02-25T12:32:54.766Z,43.17
2019-02-25T12:36:02.753Z,42.51
2019-02-25T12:39:12.042Z,42.34
2019-02-25T12:42:18.384Z,42.95
2019-02-25T12:45:24.728Z,42.78
2019-02-25T12:48:31.321Z,42.17
2019-02-25T12:51:37.728Z,41.85
2019-02-25T12:54:44.129Z,40.63
2019-02-25T12:57:50.502Z,40.63
2019-02-25T13:00:56.812Z,43.10
2019-02-25T13:04:03.589Z,41.82
2019-02-25T13:07:10.279Z,40.46
2019-02-25T13:10:16.831Z,40.46
2019-02-25T13:13:23.273Z,39.94
2019-02-25T13:16:29.711Z,41.48
2019-02-25T13:19:36.091Z,39.93
2019-02-25T13:22:42.489Z,40.34
2019-02-25T13:25:48.961Z,39.83
2019-02-25T13:28:55.552Z,39.78
2019-02-25T13:32:02.406Z,40.31
2019-02-25T13:35:09.087Z,41.06
2019-02-25T13:38:15.597Z,41.58
2019-02-25T13:41:22.033Z,42.43
2019-02-25T13:44:28.366Z,42.07
2019-02-25T13:47:35.099Z,42.69
2019-02-25T13:50:41.564Z,42.84
2019-02-25T13:53:47.875Z,43.60
2019-02-25T13:56:54.311Z,44.09
2019-02-25T14:00:00.693Z,45.16
2019-02-25T14:03:07.174Z,45.60
2019-02-25T14:06:13.647Z,45.83
2019-02-25T14:09:20.256Z,46.24
2019-02-25T14:12:26.681Z,46.00
2019-02-25T14:15:34.061Z,45.25
2019-02-25T14:18:40.430Z,46.78
2019-02-25T14:21:46.944Z,47.49
2019-02-25T14:24:54.382Z,47.52
2019-02-25T14:28:02.742Z,47.83
2019-02-25T14:31:09.194Z,48.16
2019-02-25T14:34:15.910Z,48.13
2019-02-25T14:37:22.719Z,48.24
2019-02-25T14:40:32.130Z,48.31
2019-02-25T14:43:42.781Z,48.78
2019-02-25T14:46:45.686Z,48.71
2019-02-25T14:49:52.150Z,49.09
2019-02-25T14:53:00.186Z,48.85
2019-02-25T14:56:07.878Z,48.58
2019-02-25T14:59:15.575Z,49.14
2019-02-25T15:02:22.541Z,49.23
2019-02-25T15:05:29.072Z,49.47
2019-02-25T15:08:36.139Z,49.59
2019-02-25T15:11:42.622Z,49.78
2019-02-25T15:14:49.083Z,49.01
2019-02-25T15:17:55.626Z,50.01
2019-02-25T15:21:02.469Z,49.82
2019-02-25T15:24:12.647Z,49.92
2019-02-25T15:27:19.665Z,50.33
2019-02-25T15:30:28.233Z,50.05
2019-02-25T15:33:35.751Z,50.42
2019-02-25T15:36:42.212Z,50.87
2019-02-25T15:39:48.772Z,51.12
2019-02-25T15:43:12.651Z,51.02
2019-02-25T15:46:19.602Z,51.82
2019-02-25T15:49:26.569Z,51.84
2019-02-25T15:52:39.922Z,51.98
2019-02-25T15:55:42.357Z,52.03
2019-02-25T15:58:51.241Z,52.70
2019-02-25T16:01:57.614Z,53.00
2019-02-25T16:05:05.865Z,53.25
2019-02-25T16:08:16.244Z,53.40
2019-02-25T16:11:25.690Z,53.90
2019-02-25T16:14:31.881Z,53.90
2019-02-25T16:17:38.509Z,54.20
2019-02-25T16:20:46.225Z,54.38
2019-02-25T16:23:54.097Z,54.39
2019-02-25T16:27:01.000Z,54.23
2019-02-25T16:30:10.400Z,54.28
2019-02-25T16:33:17.439Z,54.04
2019-02-25T16:36:26.066Z,54.43
2019-02-25T16:39:31.965Z,54.36
2019-02-25T16:42:39.330Z,54.49
2019-02-25T16:45:47.033Z,54.48
2019-02-25T16:48:55.135Z,54.29
2019-02-25T16:52:02.145Z,54.00
2019-02-25T16:55:10.155Z,54.00
2019-02-25T16:58:17.434Z,54.20
2019-02-25T17:01:25.798Z,54.20
2019-02-25T17:04:32.021Z,53.98
2019-02-25T17:07:40.080Z,53.88
2019-02-25T17:10:46.672Z,53.94
2019-02-25T17:13:55.125Z,54.33
2019-02-25T17:17:01.756Z,54.08
2019-02-25T17:20:13.018Z,53.94
2019-02-25T17:23:20.030Z,54.10
2019-02-25T17:26:26.563Z,53.87
2019-02-25T17:29:34.172Z,53.54
2019-02-25T17:32:42.445Z,53.96
2019-02-25T17:35:49.976Z,53.89
2019-02-25T17:38:57.670Z,53.77
2019-02-25T17:42:05.609Z,53.52
2019-02-25T17:45:17.150Z,53.49
2019-02-25T17:48:24.703Z,53.65
2019-02-25T17:51:31.010Z,53.54
2019-02-25T17:54:38.149Z,53.30
2019-02-25T17:57:45.659Z,52.91
2019-02-25T18:00:53.971Z,52.67
2019-02-25T18:04:02.524Z,52.26
2019-02-25T18:07:09.310Z,52.38
2019-02-25T18:10:15.762Z,52.13
2019-02-25T18:13:23.687Z,51.54
2019-02-25T18:16:33.287Z,52.06
2019-02-25T18:19:41.808Z,52.04
2019-02-25T18:22:50.804Z,51.84
2019-02-25T18:25:58.656Z,51.85
2019-02-25T18:29:05.552Z,51.60
2019-02-25T18:32:12.319Z,51.32
2019-02-25T18:35:21.215Z,51.32
2019-02-25T18:38:29.630Z,51.27
2019-02-25T18:41:37.106Z,51.00
2019-02-25T18:44:44.924Z,50.73
2019-02-25T18:47:51.598Z,50.62
2019-02-25T18:50:59.622Z,50.35
2019-02-25T18:54:06.257Z,50.53
2019-02-25T18:57:12.591Z,50.23
2019-02-25T19:00:26.378Z,50.23
2019-02-25T19:03:35.499Z,50.30
2019-02-25T19:06:43.564Z,50.58
2019-02-25T19:09:51.625Z,50.38
2019-02-25T19:12:59.168Z,50.42
2019-02-25T19:16:06.710Z,50.70
2019-02-25T19:19:16.523Z,50.36
2019-02-25T19:22:24.576Z,50.25
2019-02-25T19:25:30.898Z,50.12
2019-02-25T19:28:37.263Z,50.26
2019-02-25T19:31:43.639Z,50.27
2019-02-25T19:34:51.934Z,50.61
2019-02-25T19:38:03.173Z,50.27
2019-02-25T19:41:11.065Z,50.11
2019-02-25T19:44:16.299Z,50.24
2019-02-25T19:47:22.678Z,49.86
2019-02-25T19:50:29.915Z,49.86
2019-02-25T19:53:38.816Z,50.66
2019-02-25T19:56:45.966Z,49.91
2019-02-25T19:59:55.415Z,50.54
2019-02-25T20:03:05.688Z,50.47
2019-02-25T20:06:13.807Z,50.95
2019-02-25T20:09:18.374Z,50.09
2019-02-25T20:12:24.937Z,50.44
2019-02-25T20:15:31.385Z,50.83
2019-02-25T20:18:39.624Z,50.54
2019-02-25T20:21:47.768Z,50.66
2019-02-25T20:24:57.653Z,50.66
2019-02-25T20:28:04.320Z,50.89
2019-02-25T20:31:12.724Z,50.31
2019-02-25T20:34:20.697Z,50.65
2019-02-25T20:37:27.873Z,51.34
2019-02-25T20:40:35.283Z,51.34
2019-02-25T20:43:41.699Z,51.52
2019-02-25T20:46:50.690Z,50.96
2019-02-25T20:49:56.536Z,51.26
2019-02-25T20:53:06.503Z,51.09
2019-02-25T20:56:12.441Z,50.22
2019-02-25T20:59:20.948Z,50.31
2019-02-25T21:02:26.995Z,50.20
2019-02-25T21:05:33.290Z,51.10
2019-02-25T21:08:40.605Z,50.87
2019-02-25T21:11:48.707Z,51.21
2019-02-25T21:14:55.116Z,50.74
2019-02-25T21:18:04.421Z,51.05
2019-02-25T21:21:13.469Z,50.55
2019-02-25T21:24:19.035Z,50.57
2019-02-25T21:27:28.327Z,51.11
2019-02-25T21:30:37.161Z,51.26
2019-02-25T21:33:45.011Z,50.94
2019-02-25T21:36:49.863Z,51.40
2019-02-25T21:39:58.208Z,51.28
2019-02-25T21:43:04.277Z,51.03
2019-02-25T21:46:10.739Z,50.65
2019-02-25T21:49:17.282Z,50.80
2019-02-25T21:52:23.772Z,51.13
2019-02-25T21:55:32.565Z,51.30
2019-02-25T21:58:38.179Z,51.49
2019-02-25T22:01:46.013Z,51.86
2019-02-25T22:04:54.052Z,52.12
2019-02-25T22:08:02.268Z,51.58
2019-02-25T22:11:14.797Z,52.71
2019-02-25T22:14:20.499Z,52.24
2019-02-25T22:17:25.679Z,52.06
2019-02-25T22:20:35.634Z,52.24
2019-02-25T22:23:40.452Z,52.10
2019-02-25T22:26:49.980Z,52.18
2019-02-25T22:29:57.968Z,52.24
2019-02-25T22:33:07.126Z,52.08
2019-02-25T22:36:12.891Z,52.49
2019-02-25T22:39:21.307Z,52.10
2019-02-25T22:42:29.681Z,51.89
2019-02-25T22:45:37.684Z,52.17
2019-02-25T22:48:45.410Z,52.44
2019-02-25T22:51:55.760Z,52.03
2019-02-25T22:55:00.232Z,52.48
2019-02-25T22:58:08.394Z,52.16
2019-02-25T23:01:17.941Z,52.81
2019-02-25T23:04:24.834Z,52.65
2019-02-25T23:07:32.293Z,52.21
2019-02-25T23:10:41.939Z,52.42
2019-02-25T23:13:47.875Z,52.25
2019-02-25T23:16:55.114Z,52.59
2019-02-25T23:20:02.673Z,52.90
2019-02-25T23:23:09.851Z,53.20
2019-02-25T23:26:17.080Z,52.70
2019-02-25T23:29:28.257Z,53.09
2019-02-25T23:32:33.255Z,53.83
2019-02-25T23:35:42.743Z,54.22
2019-02-25T23:38:47.882Z,54.77
2019-02-25T23:41:54.457Z,55.12
2019-02-25T23:45:00.780Z,55.46
2019-02-25T23:48:08.999Z,55.61
2019-02-25T23:51:17.269Z,55.93
2019-02-25T23:54:25.377Z,56.30
2019-02-25T23:57:32.765Z,56.42
